Time;durP1;ratioP1;P1;durP2;ratioP2;P2;SDS_P1;SDS_P2;PMS_P1;PMS_P2;Temp;Humidity;BMP_temperature;BMP_pressure;BME280_temperature;BME280_humidity;BME280_pressure;Samples;Min_cycle;Max_cycle;Signal;HPM_P1;HPM_P2
2021/08/05 00:02:16;;;;;;;;;;;14.00;99.90;;;;;;5077029;28;19913;-72
2021/08/05 00:04:41;;;;;;;;;;;14.00;99.90;;;;;;5059570;28;19919;-72
2021/08/05 00:07:07;;;;;;;;;;;14.00;99.90;;;;;;5077151;28;20262;-72
2021/08/05 00:09:32;;;;;;;;;;;14.10;99.90;;;;;;5077112;28;20277;-72
2021/08/05 00:11:58;;;;;;;;;;;14.10;99.90;;;;;;5077090;28;19908;-72
2021/08/05 00:14:23;;;;;;;;;;;14.20;99.90;;;;;;5076604;28;19908;-72
2021/08/05 00:16:49;;;;;;;;;;;14.20;99.90;;;;;;5058487;28;19909;-72
2021/08/05 00:19:15;;;;;;;;;;;14.20;99.90;;;;;;5076385;28;20382;-72
2021/08/05 00:21:40;;;;;;;;;;;14.20;99.90;;;;;;5076362;28;20277;-72
2021/08/05 00:24:06;;;;;;;;;;;14.20;99.90;;;;;;5076296;28;20250;-72
2021/08/05 00:26:31;;;;;;;;;;;14.20;99.90;;;;;;5076214;28;19963;-72
2021/08/05 00:28:57;;;;;;;;;;;14.20;99.90;;;;;;5076526;28;20362;-72
2021/08/05 00:31:22;;;;;;;;;;;14.30;99.90;;;;;;5058611;28;19915;-72
2021/08/05 00:33:48;;;;;;;;;;;14.30;99.90;;;;;;5076706;28;20361;-72
2021/08/05 00:36:13;;;;;;;;;;;14.30;99.90;;;;;;5076631;28;19963;-72
2021/08/05 00:38:39;;;;;;;;;;;14.30;99.90;;;;;;5076649;28;19909;-72
2021/08/05 00:41:04;;;;;;;;;;;14.40;99.90;;;;;;5076526;28;19971;-72
2021/08/05 00:43:30;;;;;;;;;;;14.40;99.90;;;;;;5076239;28;20373;-72
2021/08/05 00:45:55;;;;;;;;;;;14.30;99.90;;;;;;5076183;28;19924;-72
2021/08/05 00:48:20;;;;;;;;;;;14.30;99.90;;;;;;5076080;28;19913;-72
2021/08/05 00:50:48;;;;;;;;;;;14.30;99.90;;;;;;5076118;28;20234;-72
2021/08/05 00:53:14;;;;;;;;;;;14.20;99.90;;;;;;5076064;28;19909;-72
2021/08/05 00:55:40;;;;;;;;;;;14.30;99.90;;;;;;5076003;28;19909;-72
2021/08/05 00:58:05;;;;;;;;;;;14.20;99.90;;;;;;5058119;28;20388;-72
2021/08/05 01:00:31;;;;;;;;;;;14.30;99.90;;;;;;5075893;28;19912;-71
2021/08/05 01:03:00;;;;;;;;;;;14.30;99.90;;;;;;5075537;28;19915;-72
2021/08/05 01:05:27;;;;;;;;;;;14.30;99.90;;;;;;5075533;28;20003;-72
2021/08/05 01:07:59;;;;;;;;;;;14.40;99.90;;;;;;5075690;28;19912;-72
2021/08/05 01:10:28;;;;;;;;;;;14.40;99.90;;;;;;5075698;28;19916;-72
2021/08/05 01:15:35;;;;;;;;;;;14.30;99.90;;;;;;5092394;27;19912;-73
2021/08/05 01:18:02;;;;;;;;;;;14.20;99.90;;;;;;5092046;28;20044;-73
2021/08/05 01:20:28;;;;;;;;;;;14.30;99.90;;;;;;5091954;28;20011;-73
2021/08/05 01:23:02;;;;;;;;;;;14.20;99.90;;;;;;5091951;28;19954;-73
2021/08/05 01:25:30;;;;;;;;;;;14.20;99.90;;;;;;5091929;28;19912;-73
2021/08/05 01:27:58;;;;;;;;;;;14.20;99.90;;;;;;5091550;28;19921;-73
2021/08/05 01:30:25;;;;;;;;;;;14.20;99.90;;;;;;5091508;28;19912;-73
2021/08/05 01:32:51;;;;;;;;;;;14.20;99.90;;;;;;5091434;28;20278;-73
2021/08/05 01:35:16;;;;;;;;;;;14.20;99.90;;;;;;5091016;28;19943;-73
2021/08/05 01:37:42;;;;;;;;;;;14.20;99.90;;;;;;5091116;28;19958;-73
2021/08/05 01:40:08;;;;;;;;;;;14.10;99.90;;;;;;5089765;28;19947;-72
2021/08/05 01:42:36;;;;;;;;;;;14.00;99.90;;;;;;5091000;28;19909;-73
2021/08/05 01:45:02;;;;;;;;;;;13.90;99.90;;;;;;5090963;28;20285;-73
2021/08/05 01:47:28;;;;;;;;;;;13.90;99.90;;;;;;5090467;28;19909;-71
2021/08/05 01:49:54;;;;;;;;;;;13.90;99.90;;;;;;5091434;28;20310;-73
2021/08/05 01:52:19;;;;;;;;;;;13.90;99.90;;;;;;5090808;28;20012;-72
2021/08/05 01:54:46;;;;;;;;;;;13.80;99.90;;;;;;5090738;28;19913;-72
2021/08/05 01:57:12;;;;;;;;;;;13.90;99.90;;;;;;5090706;28;19945;-72
2021/08/05 01:59:38;;;;;;;;;;;13.80;99.90;;;;;;5090627;28;19909;-72
2021/08/05 02:02:03;;;;;;;;;;;13.80;99.90;;;;;;5089651;28;19908;-72
2021/08/05 02:04:37;;;;;;;;;;;13.80;99.90;;;;;;5091166;28;20007;-72
2021/08/05 02:07:07;;;;;;;;;;;13.80;99.90;;;;;;5091114;28;19948;-72
2021/08/05 02:09:37;;;;;;;;;;;13.80;99.90;;;;;;5089963;28;19909;-72
2021/08/05 02:12:02;;;;;;;;;;;13.80;99.90;;;;;;5090736;28;19915;-72
2021/08/05 02:14:29;;;;;;;;;;;13.70;99.90;;;;;;5101598;28;19920;-72
2021/08/05 02:16:55;;;;;;;;;;;13.70;99.90;;;;;;5092735;28;20281;-72
2021/08/05 02:19:21;;;;;;;;;;;13.70;99.90;;;;;;5092761;28;19908;-72
2021/08/05 02:21:47;;;;;;;;;;;13.80;99.90;;;;;;5092480;28;20362;-72
2021/08/05 02:24:15;;;;;;;;;;;13.80;99.90;;;;;;5110530;28;19991;-73
2021/08/05 02:26:41;;;;;;;;;;;13.80;99.90;;;;;;5098309;28;19999;-72
2021/08/05 02:29:07;;;;;;;;;;;13.80;99.90;;;;;;5079120;28;20352;-72
2021/08/05 02:31:35;;;;;;;;;;;13.90;99.90;;;;;;5079256;28;19908;-72
2021/08/05 02:34:01;;;;;;;;;;;13.90;99.90;;;;;;5079450;28;19920;-73
2021/08/05 02:36:26;;;;;;;;;;;13.90;99.90;;;;;;5097045;28;19912;-73
2021/08/05 02:38:52;;;;;;;;;;;13.90;99.90;;;;;;5078965;28;20003;-73
2021/08/05 02:41:18;;;;;;;;;;;13.90;99.90;;;;;;5096899;28;19930;-73
2021/08/05 02:43:44;;;;;;;;;;;13.90;99.90;;;;;;5096909;28;19978;-73
2021/08/05 02:46:10;;;;;;;;;;;13.90;99.90;;;;;;5078833;28;20319;-73
2021/08/05 02:48:36;;;;;;;;;;;13.90;99.90;;;;;;5097112;28;19912;-72
2021/08/05 02:51:02;;;;;;;;;;;13.90;99.90;;;;;;5078707;28;20059;-72
2021/08/05 02:53:28;;;;;;;;;;;14.00;99.90;;;;;;5096905;28;20376;-72
2021/08/05 02:55:54;;;;;;;;;;;14.00;99.90;;;;;;5096947;28;19916;-72
2021/08/05 02:58:20;;;;;;;;;;;14.00;99.90;;;;;;5078986;28;19908;-72
2021/08/05 03:00:45;;;;;;;;;;;13.90;99.90;;;;;;5078447;28;19923;-73
2021/08/05 03:03:11;;;;;;;;;;;13.90;99.90;;;;;;5078467;28;19995;-73
2021/08/05 03:05:37;;;;;;;;;;;13.90;99.90;;;;;;5078359;28;20010;-72
2021/08/05 03:08:02;;;;;;;;;;;13.90;99.90;;;;;;5096135;28;19954;-72
2021/08/05 03:10:28;;;;;;;;;;;13.90;99.90;;;;;;5096063;28;19998;-72
2021/08/05 03:12:53;;;;;;;;;;;13.90;99.90;;;;;;5077910;28;20384;-72
2021/08/05 03:15:18;;;;;;;;;;;13.80;99.90;;;;;;5077577;28;19950;-72
2021/08/05 03:17:44;;;;;;;;;;;13.90;99.90;;;;;;5096268;28;20434;-72
2021/08/05 03:20:15;;;;;;;;;;;13.80;99.90;;;;;;5096187;28;20281;-72
2021/08/05 03:22:41;;;;;;;;;;;13.90;99.90;;;;;;5096160;28;19939;-72
2021/08/05 03:25:06;;;;;;;;;;;13.90;99.90;;;;;;5077758;28;19931;-73
2021/08/05 03:27:32;;;;;;;;;;;13.90;99.90;;;;;;5095798;28;19908;-72
2021/08/05 03:29:57;;;;;;;;;;;13.90;99.90;;;;;;5077948;28;20380;-72
2021/08/05 03:32:23;;;;;;;;;;;13.90;99.90;;;;;;5095939;28;19961;-72
2021/08/05 03:34:48;;;;;;;;;;;13.90;99.90;;;;;;5077964;28;19912;-72
2021/08/05 03:37:13;;;;;;;;;;;13.80;99.90;;;;;;5094849;28;19909;-72
2021/08/05 03:39:39;;;;;;;;;;;13.80;99.90;;;;;;5095798;28;19908;-72
2021/08/05 03:42:04;;;;;;;;;;;13.90;99.90;;;;;;5095732;28;19916;-72
2021/08/05 03:44:30;;;;;;;;;;;13.90;99.90;;;;;;5095697;28;20003;-72
2021/08/05 03:46:55;;;;;;;;;;;13.90;99.90;;;;;;5077570;28;20273;-72
2021/08/05 03:49:21;;;;;;;;;;;13.90;99.90;;;;;;5095605;28;19912;-72
2021/08/05 03:51:46;;;;;;;;;;;13.90;99.90;;;;;;5095808;28;19908;-72
2021/08/05 03:54:12;;;;;;;;;;;13.90;99.90;;;;;;5095433;28;19973;-72
2021/08/05 03:56:37;;;;;;;;;;;13.90;99.90;;;;;;5095782;28;19979;-73
2021/08/05 03:59:02;;;;;;;;;;;14.00;99.90;;;;;;5095121;28;19908;-72
2021/08/05 04:01:28;;;;;;;;;;;14.00;99.90;;;;;;5077308;28;19909;-72
2021/08/05 04:03:53;;;;;;;;;;;13.90;99.90;;;;;;5095041;28;20423;-72
2021/08/05 04:06:19;;;;;;;;;;;14.00;99.90;;;;;;5095552;28;19955;-72
2021/08/05 04:08:44;;;;;;;;;;;14.00;99.90;;;;;;5095506;28;20354;-73
2021/08/05 04:11:10;;;;;;;;;;;14.00;99.90;;;;;;5076743;28;20425;-73
2021/08/05 04:13:35;;;;;;;;;;;14.00;99.90;;;;;;5076411;28;19916;-72
2021/08/05 04:16:01;;;;;;;;;;;14.00;99.90;;;;;;5094816;28;20019;-72
2021/08/05 04:18:27;;;;;;;;;;;14.00;99.90;;;;;;5076618;28;20285;-72
2021/08/05 04:20:52;;;;;;;;;;;14.00;99.90;;;;;;5095002;28;19908;-72
2021/08/05 04:23:18;;;;;;;;;;;14.10;99.90;;;;;;5094930;28;20353;-72
2021/08/05 04:25:44;;;;;;;;;;;14.10;99.90;;;;;;5094880;28;19916;-73
2021/08/05 04:28:10;;;;;;;;;;;14.10;99.90;;;;;;5094859;28;19908;-73
2021/08/05 04:30:36;;;;;;;;;;;14.10;99.90;;;;;;5094516;28;20399;-72
2021/08/05 04:33:01;;;;;;;;;;;14.10;99.90;;;;;;5094536;28;20383;-72
2021/08/05 04:35:27;;;;;;;;;;;14.20;99.90;;;;;;5094699;28;19912;-72
2021/08/05 04:37:54;;;;;;;;;;;14.20;99.90;;;;;;5077130;28;19908;-72
2021/08/05 04:40:21;;;;;;;;;;;14.20;99.90;;;;;;5094674;28;19999;-73
2021/08/05 04:42:46;;;;;;;;;;;14.20;99.90;;;;;;5076589;28;19935;-72
2021/08/05 04:45:12;;;;;;;;;;;14.10;99.90;;;;;;5094926;28;20365;-72
2021/08/05 04:47:54;;;;;;;;;;;14.20;99.90;;;;;;5076600;28;19923;-72
2021/08/05 04:50:20;;;;;;;;;;;14.20;99.90;;;;;;5094697;28;19908;-73
2021/08/05 04:52:45;;;;;;;;;;;14.30;99.90;;;;;;5094810;28;19912;-73
2021/08/05 04:55:11;;;;;;;;;;;14.40;99.90;;;;;;5094677;28;19916;-73
2021/08/05 04:57:52;;;;;;;;;;;14.40;99.90;;;;;;5094445;28;19966;-72
2021/08/05 05:00:24;;;;;;;;;;;14.40;99.90;;;;;;5076443;28;19915;-72
2021/08/05 05:02:49;;;;;;;;;;;14.50;99.90;;;;;;5094107;28;19908;-73
2021/08/05 05:05:14;;;;;;;;;;;14.60;99.90;;;;;;5094035;28;19908;-72
2021/08/05 05:07:40;;;;;;;;;;;14.60;99.90;;;;;;5094037;28;19915;-72
2021/08/05 05:10:06;;;;;;;;;;;14.60;99.90;;;;;;5094590;28;20331;-73
2021/08/05 05:12:31;;;;;;;;;;;14.60;99.90;;;;;;5075880;28;19956;-72
2021/08/05 05:14:57;;;;;;;;;;;14.60;99.90;;;;;;5093764;28;20380;-72
2021/08/05 05:17:22;;;;;;;;;;;14.50;99.90;;;;;;5075804;28;19912;-72
2021/08/05 05:19:47;;;;;;;;;;;14.60;99.90;;;;;;5093926;28;19908;-72
2021/08/05 05:22:13;;;;;;;;;;;14.60;99.90;;;;;;5093898;28;19995;-72
2021/08/05 05:24:38;;;;;;;;;;;14.60;99.90;;;;;;5076340;28;19917;-72
2021/08/05 05:27:04;;;;;;;;;;;14.70;99.90;;;;;;5094160;28;19908;-72
2021/08/05 05:29:29;;;;;;;;;;;14.70;99.90;;;;;;5094064;28;19909;-72
2021/08/05 05:31:55;;;;;;;;;;;14.80;99.90;;;;;;5093804;28;19908;-72
2021/08/05 05:34:20;;;;;;;;;;;14.90;99.90;;;;;;5075976;28;20407;-72
2021/08/05 05:36:46;;;;;;;;;;;14.90;99.90;;;;;;5076019;28;19994;-72
2021/08/05 05:39:11;;;;;;;;;;;15.00;99.90;;;;;;5075696;28;20276;-72
2021/08/05 05:41:37;;;;;;;;;;;15.10;99.90;;;;;;5093728;28;19912;-72
2021/08/05 05:44:02;;;;;;;;;;;15.20;99.90;;;;;;5076239;28;19908;-72
2021/08/05 05:46:28;;;;;;;;;;;15.30;99.90;;;;;;5093945;28;20352;-73
2021/08/05 05:48:53;;;;;;;;;;;15.30;99.90;;;;;;5093942;28;19925;-72
2021/08/05 05:51:19;;;;;;;;;;;15.30;99.90;;;;;;5093918;28;20007;-72
2021/08/05 05:53:44;;;;;;;;;;;15.30;99.90;;;;;;5094070;28;19912;-73
2021/08/05 05:56:12;;;;;;;;;;;15.40;99.90;;;;;;5093833;28;19958;-73
2021/08/05 05:58:38;;;;;;;;;;;15.60;99.90;;;;;;5093854;28;19908;-72
2021/08/05 06:01:03;;;;;;;;;;;15.60;99.90;;;;;;5095183;28;20384;-73
2021/08/05 06:03:29;;;;;;;;;;;15.70;99.90;;;;;;5097366;28;19915;-73
2021/08/05 06:05:54;;;;;;;;;;;15.70;99.90;;;;;;5097327;28;20442;-73
2021/08/05 06:08:20;;;;;;;;;;;15.80;99.90;;;;;;5097292;28;20310;-73
2021/08/05 06:10:45;;;;;;;;;;;15.90;99.90;;;;;;5097270;28;19912;-73
2021/08/05 06:13:11;;;;;;;;;;;16.00;99.90;;;;;;5079405;28;19915;-73
2021/08/05 06:15:36;;;;;;;;;;;16.10;99.90;;;;;;5096920;28;19973;-73
2021/08/05 06:18:03;;;;;;;;;;;16.20;99.90;;;;;;5097041;28;20008;-73
2021/08/05 06:20:28;;;;;;;;;;;16.20;99.90;;;;;;5097572;28;19909;-73
2021/08/05 06:22:54;;;;;;;;;;;16.30;99.90;;;;;;5097064;28;19908;-73
2021/08/05 06:25:19;;;;;;;;;;;16.50;99.90;;;;;;5097545;28;19915;-73
2021/08/05 06:27:45;;;;;;;;;;;16.50;99.90;;;;;;5078650;28;19915;-73
2021/08/05 06:30:11;;;;;;;;;;;16.70;99.90;;;;;;5096924;28;19951;-73
2021/08/05 06:32:37;;;;;;;;;;;16.90;99.90;;;;;;5097433;28;19961;-73
2021/08/05 06:35:02;;;;;;;;;;;17.00;99.90;;;;;;5097321;28;20337;-73
2021/08/05 06:37:28;;;;;;;;;;;17.10;99.90;;;;;;5078718;28;19950;-73
2021/08/05 06:39:53;;;;;;;;;;;17.20;99.90;;;;;;5096444;28;19908;-73
2021/08/05 06:42:19;;;;;;;;;;;17.20;99.90;;;;;;5096557;28;19917;-73
2021/08/05 06:44:44;;;;;;;;;;;17.30;99.90;;;;;;5078180;28;19919;-73
2021/08/05 06:47:10;;;;;;;;;;;17.30;99.90;;;;;;5096541;28;19908;-73
2021/08/05 06:49:35;;;;;;;;;;;17.20;99.90;;;;;;5096599;28;20336;-73
2021/08/05 06:52:01;;;;;;;;;;;17.50;99.90;;;;;;5096448;28;19999;-73
2021/08/05 06:54:26;;;;;;;;;;;17.70;99.90;;;;;;5096370;28;19924;-73
2021/08/05 06:56:52;;;;;;;;;;;17.80;99.90;;;;;;5096406;28;19908;-73
2021/08/05 06:59:17;;;;;;;;;;;17.80;99.90;;;;;;5096049;28;19908;-73
2021/08/05 07:01:43;;;;;;;;;;;18.00;99.90;;;;;;5096199;28;19908;-73
2021/08/05 07:04:09;;;;;;;;;;;18.40;99.90;;;;;;5096195;28;19908;-73
2021/08/05 07:06:35;;;;;;;;;;;18.50;99.90;;;;;;5095973;28;20489;-73
2021/08/05 07:09:00;;;;;;;;;;;19.30;99.90;;;;;;5078321;28;19908;-72
2021/08/05 07:11:26;;;;;;;;;;;19.90;99.90;;;;;;5095750;28;19978;-72
2021/08/05 07:13:52;;;;;;;;;;;20.20;99.90;;;;;;5076730;28;19985;-73
2021/08/05 07:16:18;;;;;;;;;;;20.60;99.90;;;;;;5067838;28;20365;-70
2021/08/05 07:18:43;;;;;;;;;;;21.40;99.90;;;;;;5095362;28;19962;-72
2021/08/05 07:21:09;;;;;;;;;;;21.50;99.90;;;;;;5095867;28;19980;-73
2021/08/05 07:23:34;;;;;;;;;;;22.00;99.90;;;;;;5080306;28;19916;-72
2021/08/05 07:26:00;;;;;;;;;;;22.40;99.90;;;;;;5105243;28;19911;-70
2021/08/05 07:28:27;;;;;;;;;;;23.60;99.90;;;;;;5097319;28;20409;-70
2021/08/05 07:30:53;;;;;;;;;;;24.70;99.90;;;;;;5095493;28;19908;-70
2021/08/05 07:33:19;;;;;;;;;;;24.60;99.90;;;;;;5095550;28;19915;-70
2021/08/05 07:35:44;;;;;;;;;;;24.30;99.90;;;;;;5094641;28;19999;-70
2021/08/05 07:38:10;;;;;;;;;;;25.30;99.90;;;;;;5095091;28;20357;-70
2021/08/05 07:40:35;;;;;;;;;;;26.20;99.90;;;;;;5095022;28;19931;-70
2021/08/05 07:43:00;;;;;;;;;;;25.50;99.90;;;;;;5094998;28;19934;-72
2021/08/05 07:45:26;;;;;;;;;;;24.90;99.90;;;;;;5094730;28;19916;-72
2021/08/05 07:47:52;;;;;;;;;;;25.10;99.90;;;;;;5094649;28;20035;-72
2021/08/05 07:50:17;;;;;;;;;;;25.60;99.90;;;;;;5076667;28;19937;-72
2021/08/05 07:52:43;;;;;;;;;;;26.60;99.90;;;;;;5094962;28;20258;-72
2021/08/05 07:55:09;;;;;;;;;;;26.10;99.90;;;;;;5095233;28;19977;-72
2021/08/05 07:57:34;;;;;;;;;;;25.00;99.90;;;;;;5094880;28;20331;-72
2021/08/05 08:00:00;;;;;;;;;;;24.60;99.90;;;;;;5094569;28;19913;-72
2021/08/05 08:02:26;;;;;;;;;;;24.00;99.90;;;;;;5076765;28;19919;-72
2021/08/05 08:04:51;;;;;;;;;;;23.50;99.90;;;;;;5090008;28;19919;-72
2021/08/05 08:07:17;;;;;;;;;;;23.10;99.90;;;;;;5094075;28;19946;-72
2021/08/05 08:09:42;;;;;;;;;;;22.60;99.90;;;;;;5094760;28;19908;-73
2021/08/05 08:12:08;;;;;;;;;;;22.30;99.90;;;;;;5076674;28;19908;-72
2021/08/05 08:14:33;;;;;;;;;;;22.50;99.90;;;;;;5094293;28;19920;-72
2021/08/05 08:16:59;;;;;;;;;;;22.50;99.90;;;;;;5076535;28;19919;-72
2021/08/05 08:19:25;;;;;;;;;;;22.10;99.90;;;;;;5094837;28;19937;-72
2021/08/05 08:21:50;;;;;;;;;;;22.00;99.90;;;;;;5061254;28;19912;-72
2021/08/05 08:24:16;;;;;;;;;;;21.90;99.90;;;;;;5073886;28;19913;-72
2021/08/05 08:26:41;;;;;;;;;;;21.80;99.90;;;;;;5084269;28;19915;-72
2021/08/05 08:29:08;;;;;;;;;;;21.80;99.90;;;;;;5076444;28;19909;-72
2021/08/05 08:31:34;;;;;;;;;;;22.00;99.90;;;;;;5094009;28;20361;-71
2021/08/05 08:33:59;;;;;;;;;;;22.20;99.90;;;;;;5094212;28;19923;-72
2021/08/05 08:36:25;;;;;;;;;;;22.30;99.90;;;;;;5094155;28;19908;-72
2021/08/05 08:38:51;;;;;;;;;;;22.70;99.90;;;;;;5093803;28;19912;-72
2021/08/05 08:41:19;;;;;;;;;;;22.90;99.90;;;;;;5093975;28;20010;-71
2021/08/05 08:43:45;;;;;;;;;;;23.20;99.90;;;;;;5094222;28;19908;-72
2021/08/05 08:46:11;;;;;;;;;;;23.50;99.90;;;;;;5075507;28;19915;-72
2021/08/05 08:48:39;;;;;;;;;;;23.00;99.90;;;;;;5093986;28;19916;-72
2021/08/05 08:51:05;;;;;;;;;;;23.20;99.90;;;;;;5093687;28;19969;-72
2021/08/05 08:53:32;;;;;;;;;;;23.70;99.90;;;;;;5093758;28;19912;-72
2021/08/05 08:55:58;;;;;;;;;;;23.50;99.90;;;;;;5106380;28;19951;-71
2021/08/05 08:58:23;;;;;;;;;;;23.80;99.90;;;;;;5094186;28;20434;-71
2021/08/05 09:00:49;;;;;;;;;;;23.90;99.90;;;;;;5093449;28;20293;-72
2021/08/05 09:03:15;;;;;;;;;;;24.70;99.90;;;;;;5093617;28;19958;-71
2021/08/05 09:05:40;;;;;;;;;;;25.40;99.90;;;;;;5094378;28;19908;-71
2021/08/05 09:08:06;;;;;;;;;;;25.40;99.90;;;;;;5093554;28;19947;-72
2021/08/05 09:10:33;;;;;;;;;;;26.00;99.90;;;;;;5093961;28;19912;-72
2021/08/05 09:12:59;;;;;;;;;;;26.60;99.90;;;;;;5093993;28;19931;-72
2021/08/05 09:15:45;;;;;;;;;;;27.40;99.90;;;;;;5093703;28;19920;-72
2021/08/05 09:18:28;;;;;;;;;;;28.20;99.90;;;;;;5092788;28;20285;-72
2021/08/05 09:21:11;;;;;;;;;;;28.20;99.90;;;;;;5093515;28;19919;-72
2021/08/05 09:23:53;;;;;;;;;;;28.30;99.90;;;;;;5093782;28;19912;-72
2021/08/05 09:26:29;;;;;;;;;;;28.00;99.90;;;;;;5093299;28;20370;-70
2021/08/05 09:29:11;;;;;;;;;;;28.50;99.90;;;;;;5055882;28;19955;-71
2021/08/05 09:31:38;;;;;;;;;;;28.00;99.90;;;;;;5073533;28;20427;-71
2021/08/05 09:34:05;;;;;;;;;;;29.20;99.90;;;;;;5092954;28;20386;-71
2021/08/05 09:36:31;;;;;;;;;;;29.30;99.90;;;;;;5095722;28;19935;-71
2021/08/05 09:38:56;;;;;;;;;;;28.20;99.90;;;;;;5097729;28;20357;-71
2021/08/05 09:41:22;;;;;;;;;;;28.10;99.90;;;;;;5090562;28;19912;-71
2021/08/05 09:43:47;;;;;;;;;;;27.90;99.90;;;;;;5088633;28;19908;-71
2021/08/05 09:46:13;;;;;;;;;;;28.00;99.90;;;;;;5079660;28;19908;-71
2021/08/05 09:48:43;;;;;;;;;;;28.20;99.90;;;;;;5097499;28;20358;-71
2021/08/05 09:51:16;;;;;;;;;;;28.30;99.90;;;;;;5097792;28;20377;-71
2021/08/05 09:54:02;;;;;;;;;;;27.40;99.90;;;;;;5079566;28;19908;-71
2021/08/05 09:56:29;;;;;;;;;;;28.00;99.90;;;;;;5096868;28;20365;-71
2021/08/05 09:59:10;;;;;;;;;;;28.10;99.90;;;;;;5097208;28;19908;-71
2021/08/05 10:01:53;;;;;;;;;;;28.00;99.90;;;;;;5059165;28;20096;-71
2021/08/05 10:04:23;;;;;;;;;;;27.30;99.90;;;;;;5082489;28;20365;-71
2021/08/05 10:06:57;;;;;;;;;;;27.30;99.90;;;;;;5097132;28;20049;-71
2021/08/05 10:09:23;;;;;;;;;;;26.90;99.90;;;;;;5097021;28;19912;-71
2021/08/05 10:11:48;;;;;;;;;;;27.20;99.90;;;;;;5097079;28;19914;-71
2021/08/05 10:14:22;;;;;;;;;;;28.40;99.90;;;;;;5096682;28;19920;-71
2021/08/05 10:16:48;;;;;;;;;;;29.60;99.90;;;;;;5097065;28;19912;-71
2021/08/05 10:19:16;;;;;;;;;;;30.30;99.90;;;;;;5096719;28;19912;-71
2021/08/05 10:21:42;;;;;;;;;;;29.80;99.70;;;;;;5096806;28;19912;-71
2021/08/05 10:24:08;;;;;;;;;;;29.70;99.50;;;;;;5096473;28;19915;-70
2021/08/05 10:26:33;;;;;;;;;;;28.30;99.90;;;;;;5096894;28;19918;-71
2021/08/05 10:28:59;;;;;;;;;;;27.00;99.90;;;;;;5079129;28;20003;-71
2021/08/05 10:31:24;;;;;;;;;;;26.10;99.90;;;;;;5079432;28;20417;-71
2021/08/05 10:33:50;;;;;;;;;;;26.80;99.90;;;;;;5097448;28;19912;-71
2021/08/05 10:36:16;;;;;;;;;;;27.90;99.90;;;;;;5079097;28;19908;-70
2021/08/05 10:38:42;;;;;;;;;;;28.40;99.90;;;;;;5096679;28;19919;-71
2021/08/05 10:41:08;;;;;;;;;;;28.80;99.90;;;;;;5096020;28;19908;-71
2021/08/05 10:43:35;;;;;;;;;;;27.30;99.90;;;;;;5096031;28;20444;-70
2021/08/05 10:46:01;;;;;;;;;;;26.10;99.90;;;;;;5095320;28;19961;-70
2021/08/05 10:48:27;;;;;;;;;;;26.10;99.90;;;;;;5096405;28;19943;-71
2021/08/05 10:50:55;;;;;;;;;;;25.90;99.90;;;;;;5096194;28;20344;-71
2021/08/05 10:56:22;;;;;;;;;;;26.50;99.90;;;;;;5090153;27;20358;-70
2021/08/05 10:59:04;;;;;;;;;;;26.70;99.90;;;;;;5090356;28;20273;-70
2021/08/05 11:01:49;;;;;;;;;;;27.30;99.90;;;;;;5091283;28;19961;-70
2021/08/05 11:04:35;;;;;;;;;;;27.50;99.90;;;;;;5083644;28;19977;-70
2021/08/05 11:07:20;;;;;;;;;;;26.80;99.90;;;;;;5096312;28;19912;-70
2021/08/05 11:09:46;;;;;;;;;;;26.60;99.90;;;;;;5086423;28;19912;-70
2021/08/05 11:12:31;;;;;;;;;;;26.20;99.90;;;;;;5090815;28;19969;-70
2021/08/05 11:14:56;;;;;;;;;;;25.80;99.90;;;;;;5093796;28;19916;-70
2021/08/05 11:17:22;;;;;;;;;;;25.70;99.90;;;;;;5090165;28;20332;-70
2021/08/05 11:20:08;;;;;;;;;;;25.50;99.90;;;;;;5108261;28;19916;-70
2021/08/05 11:25:11;;;;;;;;;;;25.70;99.90;;;;;;5091032;27;19916;-71
2021/08/05 11:27:42;;;;;;;;;;;25.60;99.90;;;;;;5090757;28;20032;-71
2021/08/05 11:30:28;;;;;;;;;;;25.70;99.90;;;;;;5090681;28;19966;-71
2021/08/05 11:32:53;;;;;;;;;;;26.20;99.90;;;;;;5083732;28;19967;-71
2021/08/05 11:35:20;;;;;;;;;;;26.20;99.90;;;;;;5090410;28;19913;-70
2021/08/05 11:38:05;;;;;;;;;;;26.10;99.90;;;;;;5090240;28;19912;-70
2021/08/05 11:40:46;;;;;;;;;;;25.60;99.90;;;;;;5088444;28;19916;-70
2021/08/05 11:43:19;;;;;;;;;;;24.90;99.90;;;;;;5089632;28;19923;-70
2021/08/05 11:46:05;;;;;;;;;;;24.50;99.90;;;;;;5090835;28;19908;-70
2021/08/05 11:48:34;;;;;;;;;;;24.40;99.90;;;;;;5089906;28;20282;-71
2021/08/05 11:51:01;;;;;;;;;;;24.40;99.90;;;;;;5087176;28;19912;-70
2021/08/05 11:53:27;;;;;;;;;;;24.80;99.90;;;;;;5090250;28;19909;-71
2021/08/05 11:55:52;;;;;;;;;;;24.80;99.90;;;;;;5089675;28;19912;-70
2021/08/05 11:58:18;;;;;;;;;;;25.00;99.90;;;;;;5090229;28;20026;-71
2021/08/05 12:00:43;;;;;;;;;;;25.30;99.90;;;;;;5090070;28;20373;-71
2021/08/05 12:03:11;;;;;;;;;;;25.30;99.90;;;;;;5090218;28;20289;-70
2021/08/05 12:05:45;;;;;;;;;;;25.10;99.90;;;;;;5088540;28;19923;-71
2021/08/05 12:08:11;;;;;;;;;;;25.00;99.90;;;;;;5090298;28;20319;-71
2021/08/05 12:10:37;;;;;;;;;;;25.10;99.90;;;;;;5090103;28;19916;-71
2021/08/05 12:13:06;;;;;;;;;;;25.10;99.90;;;;;;5089808;28;19912;-70
2021/08/05 12:15:34;;;;;;;;;;;25.50;99.90;;;;;;5089934;28;19913;-70
2021/08/05 12:18:04;;;;;;;;;;;25.80;99.90;;;;;;5090353;28;20373;-71
2021/08/05 12:20:32;;;;;;;;;;;25.40;99.90;;;;;;5089645;28;20358;-70
2021/08/05 12:23:00;;;;;;;;;;;25.20;99.90;;;;;;5091959;28;19908;-71
2021/08/05 12:25:28;;;;;;;;;;;25.30;99.90;;;;;;5110297;28;19912;-71
2021/08/05 12:27:55;;;;;;;;;;;25.20;99.90;;;;;;5110547;28;19908;-71
2021/08/05 12:30:21;;;;;;;;;;;25.60;99.90;;;;;;5110206;28;19912;-70
2021/08/05 12:33:06;;;;;;;;;;;25.60;99.90;;;;;;5110354;28;19908;-71
2021/08/05 12:35:32;;;;;;;;;;;25.40;99.90;;;;;;5102158;28;20358;-70
2021/08/05 12:37:58;;;;;;;;;;;25.40;99.90;;;;;;5097691;28;19920;-70
2021/08/05 12:40:23;;;;;;;;;;;25.50;99.90;;;;;;5096468;28;19931;-71
2021/08/05 12:42:49;;;;;;;;;;;26.10;99.90;;;;;;5096331;28;20365;-71
2021/08/05 12:45:14;;;;;;;;;;;26.20;99.90;;;;;;5096195;28;20328;-71
2021/08/05 12:47:40;;;;;;;;;;;26.20;99.90;;;;;;5096023;28;19918;-70
2021/08/05 12:50:06;;;;;;;;;;;25.80;99.90;;;;;;5096459;28;19947;-70
2021/08/05 12:52:39;;;;;;;;;;;25.80;99.90;;;;;;5096282;28;19912;-70
2021/08/05 12:55:05;;;;;;;;;;;26.10;99.90;;;;;;5095907;28;19912;-70
2021/08/05 12:57:34;;;;;;;;;;;26.00;99.90;;;;;;5096330;28;20371;-70
2021/08/05 12:59:59;;;;;;;;;;;25.80;99.90;;;;;;5095655;28;20365;-72
2021/08/05 13:02:25;;;;;;;;;;;25.90;99.90;;;;;;5077484;28;20349;-71
2021/08/05 13:05:05;;;;;;;;;;;25.20;99.90;;;;;;5077700;28;19967;-69
2021/08/05 13:07:39;;;;;;;;;;;25.20;99.90;;;;;;5095208;28;19912;-71
2021/08/05 13:10:04;;;;;;;;;;;26.10;99.90;;;;;;5060908;28;19912;-71
2021/08/05 13:12:32;;;;;;;;;;;26.40;99.90;;;;;;5095719;28;19912;-71
2021/08/05 13:15:03;;;;;;;;;;;26.60;99.90;;;;;;5096071;28;19912;-71
2021/08/05 13:17:36;;;;;;;;;;;26.50;99.90;;;;;;5094958;28;19919;-71
2021/08/05 13:20:04;;;;;;;;;;;26.40;99.90;;;;;;5095463;28;20370;-71
2021/08/05 13:22:45;;;;;;;;;;;25.80;99.90;;;;;;5095574;28;20482;-71
2021/08/05 13:25:12;;;;;;;;;;;25.50;99.90;;;;;;5095900;28;19927;-71
2021/08/05 13:27:40;;;;;;;;;;;25.30;99.90;;;;;;5075638;28;19918;-70
2021/08/05 13:32:51;;;;;;;;;;;25.50;99.90;;;;;;5007428;28;20401;-70
2021/08/05 13:35:17;;;;;;;;;;;25.00;99.90;;;;;;5007133;28;19917;-69
2021/08/05 13:37:44;;;;;;;;;;;24.90;99.90;;;;;;5007357;28;20355;-70
2021/08/05 13:40:14;;;;;;;;;;;25.20;99.90;;;;;;5030454;28;19913;-71
2021/08/05 13:42:40;;;;;;;;;;;25.30;99.90;;;;;;5034097;28;20390;-72
2021/08/05 13:45:06;;;;;;;;;;;25.40;99.90;;;;;;5006057;28;19914;-71
2021/08/05 13:47:32;;;;;;;;;;;25.50;99.90;;;;;;5007428;28;19921;-71
2021/08/05 13:50:10;;;;;;;;;;;25.60;99.90;;;;;;5007096;28;19914;-71
2021/08/05 13:52:35;;;;;;;;;;;25.70;99.90;;;;;;5007569;28;19914;-71
2021/08/05 13:55:01;;;;;;;;;;;25.70;99.90;;;;;;5007482;28;20427;-71
2021/08/05 13:57:26;;;;;;;;;;;25.80;99.90;;;;;;5006903;28;20448;-71
2021/08/05 13:59:52;;;;;;;;;;;25.50;99.90;;;;;;5006639;28;20267;-71
2021/08/05 14:02:17;;;;;;;;;;;25.00;99.90;;;;;;5006206;28;19914;-71
2021/08/05 14:04:42;;;;;;;;;;;24.80;99.90;;;;;;5006330;28;19921;-71
2021/08/05 14:07:09;;;;;;;;;;;24.90;99.90;;;;;;5006641;28;19917;-71
2021/08/05 14:09:35;;;;;;;;;;;25.30;99.90;;;;;;5005784;28;20390;-71
2021/08/05 14:12:01;;;;;;;;;;;25.70;99.90;;;;;;5005900;28;19917;-71
2021/08/05 14:14:27;;;;;;;;;;;25.60;99.90;;;;;;5006046;28;19922;-71
2021/08/05 14:16:52;;;;;;;;;;;25.20;99.90;;;;;;5005065;28;20024;-71
2021/08/05 14:19:18;;;;;;;;;;;25.00;99.90;;;;;;5006247;28;20390;-71
2021/08/05 14:21:45;;;;;;;;;;;24.80;99.90;;;;;;5005782;28;19910;-71
2021/08/05 14:24:12;;;;;;;;;;;24.70;99.90;;;;;;5006438;28;19918;-71
2021/08/05 14:26:37;;;;;;;;;;;24.90;99.90;;;;;;5006270;28;19960;-71
2021/08/05 14:29:03;;;;;;;;;;;25.40;99.90;;;;;;5007068;28;19910;-71